sensor_id;sensor_type;location;lat;lon;timestamp;temperature;humidity
39189;DHT22;24915;50.858;4.376;2022-08-21T00:00:26;18.80;96.90
39189;DHT22;24915;50.858;4.376;2022-08-21T00:03:01;18.70;97.20
39189;DHT22;24915;50.858;4.376;2022-08-21T00:05:28;18.70;97.30
39189;DHT22;24915;50.858;4.376;2022-08-21T00:07:54;18.60;97.70
39189;DHT22;24915;50.858;4.376;2022-08-21T00:10:21;18.50;97.90
39189;DHT22;24915;50.858;4.376;2022-08-21T00:12:47;18.40;98.30
39189;DHT22;24915;50.858;4.376;2022-08-21T00:15:17;18.40;98.60
39189;DHT22;24915;50.858;4.376;2022-08-21T00:17:43;18.30;98.80
39189;DHT22;24915;50.858;4.376;2022-08-21T00:20:10;18.30;99.20
39189;DHT22;24915;50.858;4.376;2022-08-21T00:22:37;18.30;99.40
39189;DHT22;24915;50.858;4.376;2022-08-21T00:25:04;18.20;99.70
39189;DHT22;24915;50.858;4.376;2022-08-21T00:27:30;18.10;99.90
39189;DHT22;24915;50.858;4.376;2022-08-21T00:29:55;18.10;99.90
39189;DHT22;24915;50.858;4.376;2022-08-21T00:32:23;18.10;99.90
39189;DHT22;24915;50.858;4.376;2022-08-21T00:34:50;18.10;99.90
39189;DHT22;24915;50.858;4.376;2022-08-21T00:37:15;18.00;99.90
39189;DHT22;24915;50.858;4.376;2022-08-21T00:39:41;18.00;99.90
39189;DHT22;24915;50.858;4.376;2022-08-21T00:42:08;18.00;99.90
39189;DHT22;24915;50.858;4.376;2022-08-21T00:44:34;18.00;99.90
39189;DHT22;24915;50.858;4.376;2022-08-21T00:47:00;17.90;99.90
39189;DHT22;24915;50.858;4.376;2022-08-21T00:49:25;17.80;99.90
39189;DHT22;24915;50.858;4.376;2022-08-21T00:51:57;17.80;99.90
39189;DHT22;24915;50.858;4.376;2022-08-21T00:54:26;17.80;99.90
39189;DHT22;24915;50.858;4.376;2022-08-21T00:56:55;17.80;99.90
39189;DHT22;24915;50.858;4.376;2022-08-21T00:59:23;17.80;99.90
39189;DHT22;24915;50.858;4.376;2022-08-21T01:01:49;17.80;99.90
39189;DHT22;24915;50.858;4.376;2022-08-21T01:04:16;17.70;99.90
39189;DHT22;24915;50.858;4.376;2022-08-21T01:06:42;17.80;99.90
39189;DHT22;24915;50.858;4.376;2022-08-21T01:09:08;17.70;99.90
39189;DHT22;24915;50.858;4.376;2022-08-21T01:11:34;17.60;99.90
39189;DHT22;24915;50.858;4.376;2022-08-21T01:14:00;17.60;99.90
39189;DHT22;24915;50.858;4.376;2022-08-21T01:16:26;17.60;99.90
39189;DHT22;24915;50.858;4.376;2022-08-21T01:18:52;17.60;99.90
39189;DHT22;24915;50.858;4.376;2022-08-21T01:21:24;17.60;99.90
39189;DHT22;24915;50.858;4.376;2022-08-21T01:23:52;17.70;99.90
39189;DHT22;24915;50.858;4.376;2022-08-21T01:26:21;17.60;99.90
39189;DHT22;24915;50.858;4.376;2022-08-21T01:31:28;17.60;99.90
39189;DHT22;24915;50.858;4.376;2022-08-21T01:33:55;17.60;99.90
39189;DHT22;24915;50.858;4.376;2022-08-21T01:36:22;17.50;99.90
39189;DHT22;24915;50.858;4.376;2022-08-21T01:38:48;17.50;99.90
39189;DHT22;24915;50.858;4.376;2022-08-21T01:41:15;17.50;99.90
39189;DHT22;24915;50.858;4.376;2022-08-21T01:43:41;17.50;99.90
39189;DHT22;24915;50.858;4.376;2022-08-21T01:46:08;17.50;99.90
39189;DHT22;24915;50.858;4.376;2022-08-21T01:48:34;17.40;99.90
39189;DHT22;24915;50.858;4.376;2022-08-21T01:51:00;17.40;99.90
39189;DHT22;24915;50.858;4.376;2022-08-21T01:53:26;17.40;99.90
39189;DHT22;24915;50.858;4.376;2022-08-21T01:55:52;17.40;99.90
39189;DHT22;24915;50.858;4.376;2022-08-21T01:58:18;17.30;99.90
39189;DHT22;24915;50.858;4.376;2022-08-21T02:00:44;17.30;99.90
39189;DHT22;24915;50.858;4.376;2022-08-21T02:03:10;17.30;99.90
39189;DHT22;24915;50.858;4.376;2022-08-21T02:05:35;17.30;99.90
39189;DHT22;24915;50.858;4.376;2022-08-21T02:08:01;17.30;99.90
39189;DHT22;24915;50.858;4.376;2022-08-21T02:10:29;17.30;99.90
39189;DHT22;24915;50.858;4.376;2022-08-21T02:12:57;17.30;99.90
39189;DHT22;24915;50.858;4.376;2022-08-21T02:15:25;17.30;99.90
39189;DHT22;24915;50.858;4.376;2022-08-21T02:17:54;17.30;99.90
39189;DHT22;24915;50.858;4.376;2022-08-21T02:20:39;17.30;99.90
39189;DHT22;24915;50.858;4.376;2022-08-21T02:23:07;17.20;99.90
39189;DHT22;24915;50.858;4.376;2022-08-21T02:25:33;17.20;99.90
39189;DHT22;24915;50.858;4.376;2022-08-21T02:28:07;17.20;99.90
39189;DHT22;24915;50.858;4.376;2022-08-21T02:30:37;17.20;99.90
39189;DHT22;24915;50.858;4.376;2022-08-21T02:33:04;17.20;99.90
39189;DHT22;24915;50.858;4.376;2022-08-21T02:35:30;17.20;99.90
39189;DHT22;24915;50.858;4.376;2022-08-21T02:38:09;17.20;99.90
39189;DHT22;24915;50.858;4.376;2022-08-21T02:40:37;17.10;99.90
39189;DHT22;24915;50.858;4.376;2022-08-21T02:43:05;17.10;99.90
39189;DHT22;24915;50.858;4.376;2022-08-21T02:45:32;17.00;99.90
39189;DHT22;24915;50.858;4.376;2022-08-21T02:48:03;17.00;99.90
39189;DHT22;24915;50.858;4.376;2022-08-21T02:50:38;17.00;99.90
39189;DHT22;24915;50.858;4.376;2022-08-21T02:53:06;17.00;99.90
39189;DHT22;24915;50.858;4.376;2022-08-21T02:55:34;17.00;99.90
39189;DHT22;24915;50.858;4.376;2022-08-21T02:58:01;17.00;99.90
39189;DHT22;24915;50.858;4.376;2022-08-21T03:00:30;17.00;99.90
39189;DHT22;24915;50.858;4.376;2022-08-21T03:02:56;17.00;99.90
39189;DHT22;24915;50.858;4.376;2022-08-21T03:05:23;17.00;99.90
39189;DHT22;24915;50.858;4.376;2022-08-21T03:07:49;16.90;99.90
39189;DHT22;24915;50.858;4.376;2022-08-21T03:10:15;16.90;99.90
39189;DHT22;24915;50.858;4.376;2022-08-21T03:12:41;16.90;99.90
39189;DHT22;24915;50.858;4.376;2022-08-21T03:15:09;16.90;99.90
39189;DHT22;24915;50.858;4.376;2022-08-21T03:17:35;16.90;99.90
39189;DHT22;24915;50.858;4.376;2022-08-21T03:20:02;16.90;99.90
39189;DHT22;24915;50.858;4.376;2022-08-21T03:22:28;16.80;99.90
39189;DHT22;24915;50.858;4.376;2022-08-21T03:24:54;16.80;99.90
39189;DHT22;24915;50.858;4.376;2022-08-21T03:27:20;16.90;99.90
39189;DHT22;24915;50.858;4.376;2022-08-21T03:29:45;16.90;99.90
39189;DHT22;24915;50.858;4.376;2022-08-21T03:32:11;16.90;99.90
39189;DHT22;24915;50.858;4.376;2022-08-21T03:34:38;16.90;99.90
39189;DHT22;24915;50.858;4.376;2022-08-21T03:37:05;16.80;99.90
39189;DHT22;24915;50.858;4.376;2022-08-21T03:39:31;16.80;99.90
39189;DHT22;24915;50.858;4.376;2022-08-21T03:41:56;16.70;99.90
39189;DHT22;24915;50.858;4.376;2022-08-21T03:44:22;16.70;99.90
39189;DHT22;24915;50.858;4.376;2022-08-21T03:46:48;16.70;99.90
39189;DHT22;24915;50.858;4.376;2022-08-21T03:49:14;16.70;99.90
39189;DHT22;24915;50.858;4.376;2022-08-21T03:51:40;16.60;99.90
39189;DHT22;24915;50.858;4.376;2022-08-21T03:54:06;16.60;99.90
39189;DHT22;24915;50.858;4.376;2022-08-21T03:56:32;16.60;99.90
39189;DHT22;24915;50.858;4.376;2022-08-21T03:58:57;16.60;99.90
39189;DHT22;24915;50.858;4.376;2022-08-21T04:01:23;16.50;99.90
39189;DHT22;24915;50.858;4.376;2022-08-21T04:03:49;16.50;99.90
39189;DHT22;24915;50.858;4.376;2022-08-21T04:06:15;16.50;99.90
39189;DHT22;24915;50.858;4.376;2022-08-21T04:08:40;16.50;99.90
39189;DHT22;24915;50.858;4.376;2022-08-21T04:11:08;16.60;99.90
39189;DHT22;24915;50.858;4.376;2022-08-21T04:13:36;16.50;99.90
39189;DHT22;24915;50.858;4.376;2022-08-21T04:16:01;16.50;99.90
39189;DHT22;24915;50.858;4.376;2022-08-21T04:18:27;16.50;99.90
39189;DHT22;24915;50.858;4.376;2022-08-21T04:20:54;16.50;99.90
39189;DHT22;24915;50.858;4.376;2022-08-21T04:23:21;16.40;99.90
39189;DHT22;24915;50.858;4.376;2022-08-21T04:25:47;16.40;99.90
39189;DHT22;24915;50.858;4.376;2022-08-21T04:28:13;16.40;99.90
39189;DHT22;24915;50.858;4.376;2022-08-21T04:30:38;16.50;99.90
39189;DHT22;24915;50.858;4.376;2022-08-21T04:33:04;16.40;99.90
39189;DHT22;24915;50.858;4.376;2022-08-21T04:35:31;16.50;99.90
39189;DHT22;24915;50.858;4.376;2022-08-21T04:37:57;16.40;99.90
39189;DHT22;24915;50.858;4.376;2022-08-21T04:40:24;16.50;99.90
39189;DHT22;24915;50.858;4.376;2022-08-21T04:43:02;16.50;99.90
39189;DHT22;24915;50.858;4.376;2022-08-21T04:45:34;16.50;99.90
39189;DHT22;24915;50.858;4.376;2022-08-21T04:48:03;16.40;99.90
39189;DHT22;24915;50.858;4.376;2022-08-21T04:50:39;16.40;99.90
39189;DHT22;24915;50.858;4.376;2022-08-21T04:53:18;16.40;99.90
39189;DHT22;24915;50.858;4.376;2022-08-21T04:55:44;16.40;99.90
39189;DHT22;24915;50.858;4.376;2022-08-21T04:58:12;16.40;99.90
39189;DHT22;24915;50.858;4.376;2022-08-21T05:00:39;16.40;99.90
39189;DHT22;24915;50.858;4.376;2022-08-21T05:03:06;16.40;99.90
39189;DHT22;24915;50.858;4.376;2022-08-21T05:05:33;16.50;99.90
39189;DHT22;24915;50.858;4.376;2022-08-21T05:08:01;16.50;99.90
39189;DHT22;24915;50.858;4.376;2022-08-21T05:10:27;16.60;99.90
39189;DHT22;24915;50.858;4.376;2022-08-21T05:12:53;16.60;99.90
39189;DHT22;24915;50.858;4.376;2022-08-21T05:15:20;16.60;99.90
39189;DHT22;24915;50.858;4.376;2022-08-21T05:17:46;16.60;99.90
39189;DHT22;24915;50.858;4.376;2022-08-21T05:20:13;16.70;99.90
39189;DHT22;24915;50.858;4.376;2022-08-21T05:22:39;16.70;99.90
39189;DHT22;24915;50.858;4.376;2022-08-21T05:25:06;16.60;99.90
39189;DHT22;24915;50.858;4.376;2022-08-21T05:27:32;16.70;99.90
39189;DHT22;24915;50.858;4.376;2022-08-21T05:29:58;16.70;99.90
39189;DHT22;24915;50.858;4.376;2022-08-21T05:32:24;16.80;99.90
39189;DHT22;24915;50.858;4.376;2022-08-21T05:34:50;16.80;99.90
39189;DHT22;24915;50.858;4.376;2022-08-21T05:37:15;17.00;99.90
39189;DHT22;24915;50.858;4.376;2022-08-21T05:39:41;17.00;99.90
39189;DHT22;24915;50.858;4.376;2022-08-21T05:42:07;17.00;99.90
39189;DHT22;24915;50.858;4.376;2022-08-21T05:44:33;17.00;99.90
39189;DHT22;24915;50.858;4.376;2022-08-21T05:47:06;17.00;99.90
39189;DHT22;24915;50.858;4.376;2022-08-21T05:49:32;17.00;99.90
39189;DHT22;24915;50.858;4.376;2022-08-21T05:51:58;17.00;99.90
39189;DHT22;24915;50.858;4.376;2022-08-21T05:54:23;17.00;99.90
39189;DHT22;24915;50.858;4.376;2022-08-21T05:56:49;17.10;99.90
39189;DHT22;24915;50.858;4.376;2022-08-21T05:59:15;17.20;99.90
39189;DHT22;24915;50.858;4.376;2022-08-21T06:01:41;17.30;99.90
39189;DHT22;24915;50.858;4.376;2022-08-21T06:04:07;17.40;99.90
39189;DHT22;24915;50.858;4.376;2022-08-21T06:06:33;17.50;99.90
39189;DHT22;24915;50.858;4.376;2022-08-21T06:08:59;17.50;99.90
39189;DHT22;24915;50.858;4.376;2022-08-21T06:11:25;17.60;99.90
39189;DHT22;24915;50.858;4.376;2022-08-21T06:13:50;17.70;99.90
39189;DHT22;24915;50.858;4.376;2022-08-21T06:16:16;17.80;99.90
39189;DHT22;24915;50.858;4.376;2022-08-21T06:18:44;17.90;99.90
39189;DHT22;24915;50.858;4.376;2022-08-21T06:21:10;17.90;99.90
39189;DHT22;24915;50.858;4.376;2022-08-21T06:23:36;18.00;99.90
39189;DHT22;24915;50.858;4.376;2022-08-21T06:26:03;18.00;99.90
39189;DHT22;24915;50.858;4.376;2022-08-21T06:28:30;18.00;99.90
39189;DHT22;24915;50.858;4.376;2022-08-21T06:30:57;18.10;99.90
39189;DHT22;24915;50.858;4.376;2022-08-21T06:33:22;18.30;99.90
39189;DHT22;24915;50.858;4.376;2022-08-21T06:35:49;18.50;99.90
39189;DHT22;24915;50.858;4.376;2022-08-21T06:38:15;18.60;99.90
39189;DHT22;24915;50.858;4.376;2022-08-21T06:40:41;18.60;99.90
39189;DHT22;24915;50.858;4.376;2022-08-21T06:43:12;18.50;99.90
39189;DHT22;24915;50.858;4.376;2022-08-21T06:45:39;18.50;99.90
39189;DHT22;24915;50.858;4.376;2022-08-21T06:48:05;18.60;99.90
39189;DHT22;24915;50.858;4.376;2022-08-21T06:50:33;18.80;99.90
39189;DHT22;24915;50.858;4.376;2022-08-21T06:53:07;18.90;99.90
39189;DHT22;24915;50.858;4.376;2022-08-21T06:55:35;18.80;99.90
39189;DHT22;24915;50.858;4.376;2022-08-21T06:58:03;18.90;99.90
39189;DHT22;24915;50.858;4.376;2022-08-21T07:00:30;19.00;99.90
39189;DHT22;24915;50.858;4.376;2022-08-21T07:02:56;19.20;99.90
39189;DHT22;24915;50.858;4.376;2022-08-21T07:05:25;19.40;99.90
39189;DHT22;24915;50.858;4.376;2022-08-21T07:07:51;19.80;99.90
39189;DHT22;24915;50.858;4.376;2022-08-21T07:10:16;20.10;99.90
39189;DHT22;24915;50.858;4.376;2022-08-21T07:12:42;20.20;99.90
39189;DHT22;24915;50.858;4.376;2022-08-21T07:15:08;20.30;99.90
39189;DHT22;24915;50.858;4.376;2022-08-21T07:17:34;20.40;99.90
39189;DHT22;24915;50.858;4.376;2022-08-21T07:20:00;20.50;99.90
39189;DHT22;24915;50.858;4.376;2022-08-21T07:22:25;20.40;99.90
39189;DHT22;24915;50.858;4.376;2022-08-21T07:24:53;20.60;99.90
39189;DHT22;24915;50.858;4.376;2022-08-21T07:27:19;20.80;99.90
39189;DHT22;24915;50.858;4.376;2022-08-21T07:29:44;20.90;99.90
39189;DHT22;24915;50.858;4.376;2022-08-21T07:32:10;20.90;99.90
39189;DHT22;24915;50.858;4.376;2022-08-21T07:34:36;20.90;99.90
39189;DHT22;24915;50.858;4.376;2022-08-21T07:37:01;20.80;99.90
39189;DHT22;24915;50.858;4.376;2022-08-21T07:39:27;20.90;99.90
39189;DHT22;24915;50.858;4.376;2022-08-21T07:41:53;21.20;99.90
39189;DHT22;24915;50.858;4.376;2022-08-21T07:44:18;21.30;99.90
39189;DHT22;24915;50.858;4.376;2022-08-21T07:46:44;21.50;99.90
39189;DHT22;24915;50.858;4.376;2022-08-21T07:49:10;21.70;99.90
39189;DHT22;24915;50.858;4.376;2022-08-21T07:51:35;22.10;99.90
39189;DHT22;24915;50.858;4.376;2022-08-21T07:54:01;22.40;99.90
39189;DHT22;24915;50.858;4.376;2022-08-21T07:56:28;22.70;99.90
39189;DHT22;24915;50.858;4.376;2022-08-21T07:58:55;22.60;99.90
39189;DHT22;24915;50.858;4.376;2022-08-21T08:01:23;22.60;99.90
39189;DHT22;24915;50.858;4.376;2022-08-21T08:03:49;22.60;99.90
39189;DHT22;24915;50.858;4.376;2022-08-21T08:06:14;22.60;99.90
39189;DHT22;24915;50.858;4.376;2022-08-21T08:08:42;22.40;99.90
39189;DHT22;24915;50.858;4.376;2022-08-21T08:11:09;22.20;99.90
39189;DHT22;24915;50.858;4.376;2022-08-21T08:13:45;22.30;99.90
39189;DHT22;24915;50.858;4.376;2022-08-21T08:16:11;22.50;99.90
39189;DHT22;24915;50.858;4.376;2022-08-21T08:18:37;22.60;99.90
39189;DHT22;24915;50.858;4.376;2022-08-21T08:21:04;22.70;99.90
39189;DHT22;24915;50.858;4.376;2022-08-21T08:23:31;22.60;99.90
39189;DHT22;24915;50.858;4.376;2022-08-21T08:25:58;22.60;99.90
39189;DHT22;24915;50.858;4.376;2022-08-21T08:28:24;22.50;99.90
39189;DHT22;24915;50.858;4.376;2022-08-21T08:30:50;22.30;99.90
39189;DHT22;24915;50.858;4.376;2022-08-21T08:33:16;22.30;99.90
39189;DHT22;24915;50.858;4.376;2022-08-21T08:35:48;22.30;99.90
39189;DHT22;24915;50.858;4.376;2022-08-21T08:38:15;22.50;99.90
39189;DHT22;24915;50.858;4.376;2022-08-21T08:41:14;22.70;99.70
39189;DHT22;24915;50.858;4.376;2022-08-21T08:43:44;22.70;99.70
39189;DHT22;24915;50.858;4.376;2022-08-21T08:46:16;22.90;99.50
39189;DHT22;24915;50.858;4.376;2022-08-21T08:48:54;23.00;98.80
39189;DHT22;24915;50.858;4.376;2022-08-21T08:51:25;23.20;99.10
39189;DHT22;24915;50.858;4.376;2022-08-21T08:53:57;23.60;98.60
39189;DHT22;24915;50.858;4.376;2022-08-21T08:56:29;23.80;97.70
39189;DHT22;24915;50.858;4.376;2022-08-21T08:59:00;23.70;97.50
39189;DHT22;24915;50.858;4.376;2022-08-21T09:01:27;23.80;97.50
39189;DHT22;24915;50.858;4.376;2022-08-21T09:03:53;23.90;97.60
39189;DHT22;24915;50.858;4.376;2022-08-21T09:06:22;23.80;96.90
39189;DHT22;24915;50.858;4.376;2022-08-21T09:09:12;23.70;96.50
39189;DHT22;24915;50.858;4.376;2022-08-21T09:14:46;23.90;96.40
39189;DHT22;24915;50.858;4.376;2022-08-21T09:24:50;23.70;96.30
39189;DHT22;24915;50.858;4.376;2022-08-21T09:27:20;24.10;96.10
39189;DHT22;24915;50.858;4.376;2022-08-21T09:29:51;24.40;94.90
39189;DHT22;24915;50.858;4.376;2022-08-21T09:32:22;24.80;94.10
39189;DHT22;24915;50.858;4.376;2022-08-21T09:40:31;25.10;93.60
39189;DHT22;24915;50.858;4.376;2022-08-21T09:43:00;25.60;93.20
39189;DHT22;24915;50.858;4.376;2022-08-21T09:45:26;25.70;92.00
39189;DHT22;24915;50.858;4.376;2022-08-21T09:47:52;25.50;91.80
39189;DHT22;24915;50.858;4.376;2022-08-21T09:50:24;25.30;91.80
39189;DHT22;24915;50.858;4.376;2022-08-21T09:52:54;24.90;92.10
39189;DHT22;24915;50.858;4.376;2022-08-21T09:55:27;24.70;92.40
39189;DHT22;24915;50.858;4.376;2022-08-21T09:58:15;24.70;92.50
39189;DHT22;24915;50.858;4.376;2022-08-21T10:00:41;24.40;92.50
39189;DHT22;24915;50.858;4.376;2022-08-21T10:03:10;24.30;92.90
39189;DHT22;24915;50.858;4.376;2022-08-21T10:05:37;24.20;93.10
39189;DHT22;24915;50.858;4.376;2022-08-21T10:08:03;24.00;93.50
39189;DHT22;24915;50.858;4.376;2022-08-21T10:10:32;24.00;93.80
39189;DHT22;24915;50.858;4.376;2022-08-21T10:16:27;24.50;93.10
39189;DHT22;24915;50.858;4.376;2022-08-21T10:19:25;24.80;92.80
39189;DHT22;24915;50.858;4.376;2022-08-21T10:22:21;25.30;92.70
39189;DHT22;24915;50.858;4.376;2022-08-21T10:24:52;26.00;91.40
39189;DHT22;24915;50.858;4.376;2022-08-21T10:29:55;26.70;90.20
39189;DHT22;24915;50.858;4.376;2022-08-21T10:35:14;26.00;88.90
39189;DHT22;24915;50.858;4.376;2022-08-21T10:44:36;25.40;90.60
39189;DHT22;24915;50.858;4.376;2022-08-21T10:46:52;25.50;90.50
39189;DHT22;24915;50.858;4.376;2022-08-21T10:55:21;26.60;88.60
39189;DHT22;24915;50.858;4.376;2022-08-21T10:58:08;26.30;88.00
39189;DHT22;24915;50.858;4.376;2022-08-21T11:00:49;26.10;89.30
39189;DHT22;24915;50.858;4.376;2022-08-21T11:03:42;26.30;89.00
39189;DHT22;24915;50.858;4.376;2022-08-21T11:06:19;26.20;89.00
39189;DHT22;24915;50.858;4.376;2022-08-21T11:08:50;26.20;89.00
39189;DHT22;24915;50.858;4.376;2022-08-21T11:11:32;26.50;90.00
39189;DHT22;24915;50.858;4.376;2022-08-21T11:14:04;26.70;88.60
39189;DHT22;24915;50.858;4.376;2022-08-21T11:16:47;27.00;86.80
39189;DHT22;24915;50.858;4.376;2022-08-21T11:19:18;26.90;87.20
39189;DHT22;24915;50.858;4.376;2022-08-21T11:24:47;27.00;86.30
39189;DHT22;24915;50.858;4.376;2022-08-21T11:29:57;27.00;85.30
39189;DHT22;24915;50.858;4.376;2022-08-21T11:40:52;26.50;84.70
39189;DHT22;24915;50.858;4.376;2022-08-21T11:43:39;26.20;84.70
39189;DHT22;24915;50.858;4.376;2022-08-21T11:49:28;26.20;85.80
39189;DHT22;24915;50.858;4.376;2022-08-21T11:54:57;26.00;85.90
39189;DHT22;24915;50.858;4.376;2022-08-21T11:57:39;26.00;86.60
39189;DHT22;24915;50.858;4.376;2022-08-21T12:00:16;26.60;86.70
39189;DHT22;24915;50.858;4.376;2022-08-21T12:02:52;27.30;85.50
39189;DHT22;24915;50.858;4.376;2022-08-21T12:05:39;28.00;84.60
39189;DHT22;24915;50.858;4.376;2022-08-21T12:08:15;28.30;81.20
39189;DHT22;24915;50.858;4.376;2022-08-21T12:13:40;28.60;77.40
39189;DHT22;24915;50.858;4.376;2022-08-21T12:19:09;27.40;80.70
39189;DHT22;24915;50.858;4.376;2022-08-21T12:28:02;29.60;79.90
39189;DHT22;24915;50.858;4.376;2022-08-21T12:33:23;30.80;75.90
39189;DHT22;24915;50.858;4.376;2022-08-21T12:35:52;31.30;71.60
39189;DHT22;24915;50.858;4.376;2022-08-21T12:38:23;30.70;68.20
39189;DHT22;24915;50.858;4.376;2022-08-21T12:41:05;30.70;71.10
39189;DHT22;24915;50.858;4.376;2022-08-21T12:43:38;31.00;68.00
39189;DHT22;24915;50.858;4.376;2022-08-21T12:46:06;30.00;69.20
39189;DHT22;24915;50.858;4.376;2022-08-21T12:48:41;29.40;71.20
39189;DHT22;24915;50.858;4.376;2022-08-21T12:51:24;29.00;73.00
39189;DHT22;24915;50.858;4.376;2022-08-21T12:53:54;28.70;73.30
39189;DHT22;24915;50.858;4.376;2022-08-21T12:56:31;28.60;74.00
39189;DHT22;24915;50.858;4.376;2022-08-21T12:59:03;28.70;73.90
39189;DHT22;24915;50.858;4.376;2022-08-21T13:01:35;28.90;72.80
39189;DHT22;24915;50.858;4.376;2022-08-21T13:04:05;28.80;71.70
39189;DHT22;24915;50.858;4.376;2022-08-21T13:06:38;28.80;72.80
39189;DHT22;24915;50.858;4.376;2022-08-21T13:09:07;28.90;72.50
39189;DHT22;24915;50.858;4.376;2022-08-21T13:11:33;28.90;72.30
39189;DHT22;24915;50.858;4.376;2022-08-21T13:14:01;28.60;71.40
39189;DHT22;24915;50.858;4.376;2022-08-21T13:16:29;28.40;72.50
39189;DHT22;24915;50.858;4.376;2022-08-21T13:19:04;28.40;72.90
39189;DHT22;24915;50.858;4.376;2022-08-21T13:21:39;28.40;73.00
39189;DHT22;24915;50.858;4.376;2022-08-21T13:24:35;28.30;73.70
39189;DHT22;24915;50.858;4.376;2022-08-21T13:27:01;28.20;75.40
39189;DHT22;24915;50.858;4.376;2022-08-21T13:29:32;28.30;73.90
39189;DHT22;24915;50.858;4.376;2022-08-21T13:32:02;28.20;74.20
39189;DHT22;24915;50.858;4.376;2022-08-21T13:34:34;28.20;74.00
39189;DHT22;24915;50.858;4.376;2022-08-21T13:37:05;28.00;73.00
39189;DHT22;24915;50.858;4.376;2022-08-21T13:39:32;27.70;73.70
39189;DHT22;24915;50.858;4.376;2022-08-21T13:42:00;27.50;74.20
39189;DHT22;24915;50.858;4.376;2022-08-21T13:44:40;27.30;75.00
39189;DHT22;24915;50.858;4.376;2022-08-21T13:47:06;27.40;75.20
39189;DHT22;24915;50.858;4.376;2022-08-21T13:49:37;27.50;75.10
39189;DHT22;24915;50.858;4.376;2022-08-21T13:52:04;27.90;75.50
39189;DHT22;24915;50.858;4.376;2022-08-21T13:54:43;28.20;73.90
39189;DHT22;24915;50.858;4.376;2022-08-21T13:57:33;28.30;72.70
39189;DHT22;24915;50.858;4.376;2022-08-21T14:00:20;28.30;72.00
39189;DHT22;24915;50.858;4.376;2022-08-21T14:02:51;28.10;73.10
39189;DHT22;24915;50.858;4.376;2022-08-21T14:05:29;28.00;73.80
39189;DHT22;24915;50.858;4.376;2022-08-21T14:10:37;27.70;72.80
39189;DHT22;24915;50.858;4.376;2022-08-21T14:13:06;27.50;74.40
39189;DHT22;24915;50.858;4.376;2022-08-21T14:15:34;27.20;74.70
39189;DHT22;24915;50.858;4.376;2022-08-21T14:18:17;26.80;75.40
39189;DHT22;24915;50.858;4.376;2022-08-21T14:20:44;26.70;76.10
39189;DHT22;24915;50.858;4.376;2022-08-21T14:23:10;26.50;76.10
39189;DHT22;24915;50.858;4.376;2022-08-21T14:28:40;26.40;76.80
39189;DHT22;24915;50.858;4.376;2022-08-21T14:31:20;26.40;77.60
39189;DHT22;24915;50.858;4.376;2022-08-21T14:33:47;26.60;77.60
39189;DHT22;24915;50.858;4.376;2022-08-21T14:36:13;26.70;76.70
39189;DHT22;24915;50.858;4.376;2022-08-21T14:38:40;26.70;77.20
39189;DHT22;24915;50.858;4.376;2022-08-21T14:41:19;26.90;77.40
39189;DHT22;24915;50.858;4.376;2022-08-21T14:43:47;27.20;76.40
39189;DHT22;24915;50.858;4.376;2022-08-21T14:46:18;27.40;77.00
39189;DHT22;24915;50.858;4.376;2022-08-21T14:48:45;27.60;75.00
39189;DHT22;24915;50.858;4.376;2022-08-21T14:51:13;27.30;75.10
39189;DHT22;24915;50.858;4.376;2022-08-21T14:53:39;27.00;75.90
39189;DHT22;24915;50.858;4.376;2022-08-21T14:56:05;26.70;76.50
39189;DHT22;24915;50.858;4.376;2022-08-21T14:58:37;26.60;77.00
39189;DHT22;24915;50.858;4.376;2022-08-21T15:01:05;26.30;77.00
39189;DHT22;24915;50.858;4.376;2022-08-21T15:03:31;26.10;77.50
39189;DHT22;24915;50.858;4.376;2022-08-21T15:05:57;25.80;78.40
39189;DHT22;24915;50.858;4.376;2022-08-21T15:08:23;25.70;78.40
39189;DHT22;24915;50.858;4.376;2022-08-21T15:10:51;25.40;79.30
39189;DHT22;24915;50.858;4.376;2022-08-21T15:13:17;25.20;80.40
39189;DHT22;24915;50.858;4.376;2022-08-21T15:15:44;25.10;80.30
39189;DHT22;24915;50.858;4.376;2022-08-21T15:18:10;25.10;81.00
39189;DHT22;24915;50.858;4.376;2022-08-21T15:20:37;25.30;81.40
39189;DHT22;24915;50.858;4.376;2022-08-21T15:23:04;25.40;80.40
39189;DHT22;24915;50.858;4.376;2022-08-21T15:25:30;25.40;79.80
39189;DHT22;24915;50.858;4.376;2022-08-21T15:27:56;25.30;79.80
39189;DHT22;24915;50.858;4.376;2022-08-21T15:30:22;25.40;80.30
39189;DHT22;24915;50.858;4.376;2022-08-21T15:32:48;25.40;78.90
39189;DHT22;24915;50.858;4.376;2022-08-21T15:35:14;25.10;78.80
39189;DHT22;24915;50.858;4.376;2022-08-21T15:37:40;25.10;79.10
39189;DHT22;24915;50.858;4.376;2022-08-21T15:40:06;25.00;77.70
39189;DHT22;24915;50.858;4.376;2022-08-21T15:42:34;25.00;78.60
39189;DHT22;24915;50.858;4.376;2022-08-21T15:45:00;25.10;78.70
39189;DHT22;24915;50.858;4.376;2022-08-21T15:47:32;25.10;78.70
39189;DHT22;24915;50.858;4.376;2022-08-21T15:49:59;25.10;78.90
39189;DHT22;24915;50.858;4.376;2022-08-21T15:52:25;25.10;79.20
39189;DHT22;24915;50.858;4.376;2022-08-21T15:54:51;25.10;78.90
39189;DHT22;24915;50.858;4.376;2022-08-21T15:57:20;25.10;79.20
39189;DHT22;24915;50.858;4.376;2022-08-21T15:59:56;25.20;79.60
39189;DHT22;24915;50.858;4.376;2022-08-21T16:02:27;25.20;79.60
39189;DHT22;24915;50.858;4.376;2022-08-21T16:04:54;25.30;79.80
39189;DHT22;24915;50.858;4.376;2022-08-21T16:07:20;25.40;79.10
39189;DHT22;24915;50.858;4.376;2022-08-21T16:09:45;25.40;78.80
39189;DHT22;24915;50.858;4.376;2022-08-21T16:12:18;25.40;79.10
39189;DHT22;24915;50.858;4.376;2022-08-21T16:14:45;25.40;78.80
39189;DHT22;24915;50.858;4.376;2022-08-21T16:17:10;25.40;79.50
39189;DHT22;24915;50.858;4.376;2022-08-21T16:19:36;25.40;79.70
39189;DHT22;24915;50.858;4.376;2022-08-21T16:22:02;25.30;79.10
39189;DHT22;24915;50.858;4.376;2022-08-21T16:24:29;25.10;79.30
39189;DHT22;24915;50.858;4.376;2022-08-21T16:26:55;24.90;80.10
39189;DHT22;24915;50.858;4.376;2022-08-21T16:29:20;24.90;81.70
39189;DHT22;24915;50.858;4.376;2022-08-21T16:31:47;25.00;81.00
39189;DHT22;24915;50.858;4.376;2022-08-21T16:34:17;25.10;81.10
39189;DHT22;24915;50.858;4.376;2022-08-21T16:36:43;25.10;80.80
39189;DHT22;24915;50.858;4.376;2022-08-21T16:39:09;25.20;80.00
39189;DHT22;24915;50.858;4.376;2022-08-21T16:41:36;25.20;78.40
39189;DHT22;24915;50.858;4.376;2022-08-21T16:44:02;25.20;78.40
39189;DHT22;24915;50.858;4.376;2022-08-21T16:46:31;25.10;78.30
39189;DHT22;24915;50.858;4.376;2022-08-21T16:48:57;25.10;79.40
39189;DHT22;24915;50.858;4.376;2022-08-21T16:51:22;25.10;79.80
39189;DHT22;24915;50.858;4.376;2022-08-21T16:53:49;25.10;79.90
39189;DHT22;24915;50.858;4.376;2022-08-21T16:56:16;25.20;80.50
39189;DHT22;24915;50.858;4.376;2022-08-21T16:58:46;25.20;80.30
39189;DHT22;24915;50.858;4.376;2022-08-21T17:01:14;25.20;79.70